Time;durP1;ratioP1;P1;durP2;ratioP2;P2;SDS_P1;SDS_P2;PMS_P1;PMS_P2;Temp;Humidity;BMP_temperature;BMP_pressure;BME280_temperature;BME280_humidity;BME280_pressure;Samples;Min_cycle;Max_cycle;Signal;HPM_P1;HPM_P2
2023/05/23 00:01:39;;;;;;;35.17;26.85;;;;;;;19.46;100.00;100178.03;5024993;28;20068;-88
2023/05/23 00:04:08;;;;;;;42.83;30.00;;;;;;;19.43;100.00;100173.75;5007488;28;20049;-86
2023/05/23 00:06:37;;;;;;;38.72;28.25;;;;;;;19.45;100.00;100177.16;5023566;28;20057;-87
2023/05/23 00:09:07;;;;;;;42.50;30.15;;;;;;;19.47;100.00;100174.34;5023369;28;20045;-86
2023/05/23 00:11:36;;;;;;;40.42;29.60;;;;;;;19.48;100.00;100173.38;5022159;28;20037;-86
2023/05/23 00:14:07;;;;;;;36.90;28.60;;;;;;;19.45;100.00;100177.16;5022052;28;20100;-86
2023/05/23 00:16:39;;;;;;;34.75;27.40;;;;;;;19.42;100.00;100179.25;5022354;28;20046;-87
2023/05/23 00:19:21;;;;;;;39.47;27.13;;;;;;;19.46;100.00;100169.97;5022247;28;20038;-88
2023/05/23 00:21:49;;;;;;;33.70;27.67;;;;;;;19.45;100.00;100174.47;5004957;28;20084;-87
2023/05/23 00:24:19;;;;;;;36.40;26.40;;;;;;;19.41;100.00;100173.03;5022438;28;20060;-87
2023/05/23 00:26:50;;;;;;;32.90;25.15;;;;;;;19.41;100.00;100172.19;5021719;28;20041;-87
2023/05/23 00:29:17;;;;;;;31.08;24.48;;;;;;;19.39;100.00;100172.31;5021462;28;20056;-87
2023/05/23 00:31:45;;;;;;;33.58;25.13;;;;;;;19.42;100.00;100172.06;5029674;28;20050;-87
2023/05/23 00:34:16;;;;;;;34.13;26.30;;;;;;;19.47;100.00;100177.88;5037871;28;20034;-86
2023/05/23 00:36:46;;;;;;;36.13;25.70;;;;;;;19.54;100.00;100175.53;5052025;28;20026;-86
2023/05/23 00:39:18;;;;;;;29.35;23.90;;;;;;;19.42;100.00;100160.47;5079935;23;20038;-86
2023/05/23 00:41:58;;;;;;;32.58;26.05;;;;;;;19.47;100.00;100174.34;5039091;28;20070;-86
2023/05/23 00:44:40;;;;;;;32.70;25.67;;;;;;;19.51;100.00;100182.03;5048516;28;20096;-86
2023/05/23 00:47:12;;;;;;;29.60;23.42;;;;;;;19.42;100.00;100181.94;5029191;28;20438;-85
2023/05/23 00:49:41;;;;;;;32.88;26.27;;;;;;;19.36;100.00;100180.63;5028313;28;20056;-85
2023/05/23 00:52:21;;;;;;;30.08;24.10;;;;;;;19.32;100.00;100183.75;5016412;28;20051;-87
2023/05/23 00:55:02;;;;;;;26.05;21.52;;;;;;;19.26;100.00;100175.22;5030772;28;20088;-87
2023/05/23 00:57:29;;;;;;;33.53;24.67;;;;;;;19.34;100.00;100195.19;5028656;28;20052;-86
2023/05/23 00:59:57;;;;;;;30.05;23.55;;;;;;;19.32;100.00;100202.53;5027853;28;20068;-87
2023/05/23 01:02:24;;;;;;;30.08;23.23;;;;;;;19.27;100.00;100209.16;5045607;28;20048;-87
2023/05/23 01:04:53;;;;;;;32.40;22.52;;;;;;;19.21;100.00;100206.97;5053276;28;20044;-86
2023/05/23 01:07:26;;;;;;;30.83;23.65;;;;;;;19.06;100.00;100192.19;5052687;28;20041;-86
2023/05/23 01:09:53;;;;;;;29.88;24.85;;;;;;;19.20;100.00;100213.31;5011947;28;20088;-86
2023/05/23 01:12:39;;;;;;;29.70;25.95;;;;;;;19.08;100.00;100184.84;5045398;28;20072;-86
2023/05/23 01:15:17;;;;;;;30.50;25.13;;;;;;;19.26;100.00;100214.66;5029130;28;20056;-87
2023/05/23 01:17:57;;;;;;;32.30;25.80;;;;;;;19.12;100.00;100194.34;5030513;28;20049;-86
2023/05/23 01:20:44;;;;;;;28.03;23.30;;;;;;;19.17;100.00;100216.28;5031965;28;20045;-87
2023/05/23 01:23:42;;;;;;;30.02;22.98;;;;;;;19.18;100.00;100217.16;5034668;28;20483;-85
2023/05/23 01:26:22;;;;;;;26.10;22.10;;;;;;;19.15;100.00;100206.66;5050721;28;20049;-85
2023/05/23 01:28:54;;;;;;;27.83;21.23;;;;;;;19.11;100.00;100211.44;5036612;28;20045;-88
2023/05/23 01:31:26;;;;;;;28.52;23.08;;;;;;;18.98;100.00;100180.41;5021383;28;20065;-83
2023/05/23 01:33:55;;;;;;;26.52;22.30;;;;;;;18.99;100.00;100200.91;5037607;28;20041;-87
2023/05/23 01:36:26;;;;;;;25.75;20.88;;;;;;;19.00;100.00;100203.47;5043353;28;20075;-88
2023/05/23 01:38:56;;;;;;;26.17;22.92;;;;;;;18.92;100.00;100200.56;5043260;28;20056;-88
2023/05/23 01:41:47;;;;;;;24.85;20.65;;;;;;;18.84;100.00;100200.38;5045922;28;20091;-88
2023/05/23 01:44:16;;;;;;;27.63;22.27;;;;;;;18.76;100.00;100197.47;5041857;28;20049;-87
2023/05/23 01:46:47;;;;;;;29.05;24.08;;;;;;;18.59;100.00;100177.41;5041475;28;20041;-88
2023/05/23 01:49:15;;;;;;;27.33;23.65;;;;;;;18.60;100.00;100189.00;5042302;28;20037;-88
2023/05/23 01:51:45;;;;;;;25.08;20.88;;;;;;;18.56;100.00;100199.97;5058664;28;20030;-88
2023/05/23 01:54:15;;;;;;;29.27;24.40;;;;;;;18.64;100.00;100220.81;5058892;28;20079;-87
2023/05/23 01:56:54;;;;;;;28.52;23.73;;;;;;;18.50;100.00;100200.47;5058175;28;20134;-87
2023/05/23 01:59:25;;;;;;;27.30;22.35;;;;;;;18.47;100.00;100199.88;5058834;28;20041;-88
2023/05/23 02:01:53;;;;;;;26.83;22.00;;;;;;;18.56;100.00;100216.06;5053322;28;20390;-88
2023/05/23 02:04:23;;;;;;;28.35;23.00;;;;;;;18.54;100.00;100228.75;5042556;28;20040;-89
2023/05/23 02:07:02;;;;;;;25.90;21.80;;;;;;;18.28;100.00;100197.00;5043221;28;20056;-89
2023/05/23 02:09:29;;;;;;;27.95;22.95;;;;;;;18.50;100.00;100245.19;5059162;28;20067;-87
2023/05/23 02:12:06;;;;;;;24.35;21.35;;;;;;;18.39;100.00;100223.78;5057997;28;20039;-88
2023/05/23 02:14:36;;;;;;;26.52;22.08;;;;;;;18.47;100.00;100242.75;5056808;28;20034;-87
2023/05/23 02:17:10;;;;;;;25.90;22.00;;;;;;;18.46;100.00;100241.91;5057974;28;20043;-87
2023/05/23 02:19:38;;;;;;;25.15;22.45;;;;;;;18.42;100.00;100218.16;5059223;28;20047;-87
2023/05/23 02:22:05;;;;;;;22.90;20.52;;;;;;;18.52;100.00;100246.78;5025585;28;20033;-88
2023/05/23 02:24:33;;;;;;;23.92;21.38;;;;;;;18.33;100.00;100226.97;5058166;28;20096;-88
2023/05/23 02:27:15;;;;;;;24.60;21.88;;;;;;;18.30;100.00;100243.28;5042972;28;20033;-88
2023/05/23 02:29:48;;;;;;;26.55;22.23;;;;;;;18.22;100.00;100249.28;5058699;28;20061;-88
2023/05/23 02:32:16;;;;;;;27.33;21.08;;;;;;;17.92;100.00;100206.22;5057640;28;20048;-87
2023/05/23 02:34:49;;;;;;;24.88;20.40;;;;;;;17.95;100.00;100236.25;5057580;28;20037;-87
2023/05/23 02:37:17;;;;;;;23.88;21.20;;;;;;;18.10;100.00;100258.31;5057671;28;20031;-88
2023/05/23 02:39:46;;;;;;;22.60;19.63;;;;;;;18.04;100.00;100251.63;5057207;28;20058;-88
2023/05/23 02:42:27;;;;;;;23.83;18.75;;;;;;;17.96;100.00;100255.88;5038894;28;20128;-86
2023/05/23 02:44:57;;;;;;;25.75;20.15;;;;;;;17.99;100.00;100258.31;5057835;28;20068;-88
2023/05/23 02:47:24;;;;;;;25.77;20.17;;;;;;;17.90;100.00;100259.06;5056207;28;20096;-85
2023/05/23 02:49:51;;;;;;;21.83;18.45;;;;;;;17.87;100.00;100255.66;5055815;28;20040;-86
2023/05/23 02:52:22;;;;;;;24.55;18.80;;;;;;;17.80;100.00;100254.41;5057719;28;20060;-86
2023/05/23 02:54:49;;;;;;;22.20;18.38;;;;;;;17.83;100.00;100264.03;5025129;28;20045;-86
2023/05/23 02:57:17;;;;;;;21.58;18.88;;;;;;;17.67;100.00;100237.59;5056685;28;20072;-87
2023/05/23 02:59:44;;;;;;;20.60;16.58;;;;;;;17.77;100.00;100259.19;5034224;28;20072;-87
2023/05/23 03:02:20;;;;;;;19.02;15.68;;;;;;;17.77;100.00;100270.75;5050827;28;20492;-87
2023/05/23 03:04:48;;;;;;;18.60;15.20;;;;;;;17.59;100.00;100256.09;5049535;28;20049;-87
2023/05/23 03:07:16;;;;;;;19.67;15.55;;;;;;;17.65;100.00;100277.03;5050230;28;20052;-88
2023/05/23 03:09:54;;;;;;;18.90;14.52;;;;;;;17.63;100.00;100262.88;5047921;28;20064;-87
2023/05/23 03:12:22;;;;;;;16.00;13.65;;;;;;;17.47;100.00;100249.84;5048663;28;20042;-87
2023/05/23 03:14:51;;;;;;;15.50;13.63;;;;;;;17.56;100.00;100271.53;5050859;28;20040;-87
2023/05/23 03:17:30;;;;;;;16.35;13.82;;;;;;;17.48;100.00;100254.22;5000668;28;20056;-87
2023/05/23 03:19:59;;;;;;;14.18;11.60;;;;;;;17.50;100.00;100275.53;5045727;28;20063;-87
2023/05/23 03:22:29;;;;;;;14.98;12.02;;;;;;;17.35;100.00;100255.31;5047367;28;20037;-87
2023/05/23 03:25:01;;;;;;;14.18;12.50;;;;;;;17.40;100.00;100279.91;5053417;28;20104;-89
2023/05/23 03:27:36;;;;;;;15.02;13.10;;;;;;;17.38;100.00;100284.50;5051340;28;20116;-86
2023/05/23 03:30:05;;;;;;;18.35;14.02;;;;;;;17.26;100.00;100272.06;5056021;28;20097;-89
2023/05/23 03:32:32;;;;;;;15.65;13.30;;;;;;;17.14;100.00;100266.69;5056803;28;20042;-87
2023/05/23 03:35:00;;;;;;;14.05;12.00;;;;;;;17.14;100.00;100277.41;5033837;28;20045;-87
2023/05/23 03:37:30;;;;;;;15.05;11.73;;;;;;;17.06;100.00;100269.09;5033822;28;20045;-88
2023/05/23 03:39:56;;;;;;;15.15;11.95;;;;;;;17.21;100.00;100295.66;5017788;28;20053;-84
2023/05/23 03:42:24;;;;;;;13.93;12.40;;;;;;;17.21;100.00;100293.81;5035582;28;20096;-87
2023/05/23 03:44:54;;;;;;;13.90;11.57;;;;;;;17.19;100.00;100285.91;5033010;28;20077;-88
2023/05/23 03:47:25;;;;;;;15.60;12.50;;;;;;;17.13;100.00;100286.41;5031046;28;20088;-87
2023/05/23 03:49:56;;;;;;;14.90;11.50;;;;;;;17.17;100.00;100279.81;5025403;28;20076;-86
2023/05/23 03:52:24;;;;;;;14.10;11.85;;;;;;;17.10;100.00;100286.63;5040142;28;20042;-87
2023/05/23 03:54:51;;;;;;;13.73;11.48;;;;;;;17.11;100.00;100308.88;5041969;28;20076;-87
2023/05/23 03:57:19;;;;;;;12.68;10.10;;;;;;;17.14;100.00;100309.50;5023800;28;20060;-86
2023/05/23 03:59:50;;;;;;;13.27;10.27;;;;;;;17.12;100.00;100318.63;5023671;28;20132;-85
2023/05/23 04:02:20;;;;;;;14.88;11.68;;;;;;;17.07;100.00;100318.09;5007231;28;20049;-85
2023/05/23 04:04:48;;;;;;;10.57;9.48;;;;;;;17.03;100.00;100316.63;5022130;28;20069;-85
2023/05/23 04:07:16;;;;;;;11.77;10.45;;;;;;;17.04;100.00;100323.69;5041009;28;20052;-86
2023/05/23 04:09:43;;;;;;;13.40;11.60;;;;;;;17.01;100.00;100321.22;5007755;28;20060;-87
2023/05/23 04:12:10;;;;;;;12.18;10.32;;;;;;;17.05;100.00;100318.22;5024136;28;20049;-87
2023/05/23 04:14:40;;;;;;;15.07;11.50;;;;;;;16.98;100.00;100318.81;5026132;28;20104;-86
2023/05/23 04:17:15;;;;;;;12.60;10.70;;;;;;;16.98;100.00;100332.19;5045438;28;20095;-87
2023/05/23 04:19:44;;;;;;;11.68;10.45;;;;;;;16.94;100.00;100328.88;5026940;28;20064;-86
2023/05/23 04:22:14;;;;;;;11.82;10.32;;;;;;;16.90;100.00;100316.69;5028885;28;20462;-86
2023/05/23 04:28:28;;;;;;;14.20;11.15;;;;;;;17.04;100.00;100345.94;5046067;28;20048;-85
2023/05/23 04:30:55;;;;;;;14.15;12.65;;;;;;;16.98;100.00;100338.38;5039111;28;20036;-87
2023/05/23 04:33:27;;;;;;;15.93;13.07;;;;;;;17.06;100.00;100345.81;5048880;28;20052;-87
2023/05/23 04:35:56;;;;;;;15.50;12.57;;;;;;;17.10;100.00;100349.97;5048524;28;20051;-87
2023/05/23 04:38:24;;;;;;;17.17;13.57;;;;;;;17.12;100.00;100356.06;5048597;28;20071;-86
2023/05/23 04:45:00;;;;;;;15.60;13.52;;;;;;;17.11;100.00;100360.56;5067650;28;20067;-86
2023/05/23 04:50:54;;;;;;;18.00;15.07;;;;;;;17.16;100.00;100366.41;5076755;28;20041;-87
2023/05/23 04:53:36;;;;;;;16.10;14.38;;;;;;;17.00;100.00;100349.78;5043097;28;20048;-86
2023/05/23 04:56:19;;;;;;;15.88;13.85;;;;;;;17.06;100.00;100368.06;5041677;28;20057;-86
2023/05/23 04:58:48;;;;;;;19.45;16.08;;;;;;;16.83;100.00;100347.53;5040799;28;20049;-87
2023/05/23 05:01:23;;;;;;;19.48;16.67;;;;;;;16.90;100.00;100364.84;5016605;28;20429;-87
2023/05/23 05:03:51;;;;;;;19.88;17.70;;;;;;;16.81;100.00;100373.53;5046356;28;20049;-87
2023/05/23 05:06:22;;;;;;;21.60;17.58;;;;;;;16.84;100.00;100368.78;5027969;28;20044;-87
2023/05/23 05:09:02;;;;;;;19.50;17.27;;;;;;;17.01;100.00;100370.22;5034016;28;20041;-87
2023/05/23 05:11:29;;;;;;;21.50;18.63;;;;;;;17.15;100.00;100391.50;5036491;28;20045;-86
2023/05/23 05:13:56;;;;;;;23.25;19.55;;;;;;;17.26;100.00;100390.69;5038943;28;20052;-87
2023/05/23 05:16:25;;;;;;;24.40;19.88;;;;;;;17.23;100.00;100372.19;5033995;28;20049;-87
2023/05/23 05:22:17;;;;;;;21.13;18.88;;;;;;;17.49;100.00;100403.19;5042733;28;20010;-85
2023/05/23 05:24:43;;;;;;;20.27;17.42;;;;;;;17.47;99.67;100394.41;5021997;28;20037;-86
2023/05/23 05:27:11;;;;;;;19.35;16.95;;;;;;;17.39;98.50;100395.97;5024469;28;20140;-86
2023/05/23 05:29:38;;;;;;;19.23;17.15;;;;;;;17.30;100.00;100400.19;5027272;28;20056;-87
2023/05/23 05:32:07;;;;;;;20.58;16.38;;;;;;;17.29;100.00;100408.34;5028626;28;20049;-87
2023/05/23 05:34:37;;;;;;;17.63;15.75;;;;;;;17.29;99.23;100422.59;5031021;28;20124;-86
2023/05/23 05:37:04;;;;;;;16.40;14.57;;;;;;;17.15;95.85;100388.81;5035389;28;20052;-87
2023/05/23 05:39:35;;;;;;;19.15;15.45;;;;;;;17.16;96.09;100421.75;5047257;28;20046;-87
2023/05/23 05:42:05;;;;;;;16.55;14.70;;;;;;;17.11;97.48;100423.94;5026490;28;20079;-87
2023/05/23 05:44:32;;;;;;;16.88;14.88;;;;;;;17.10;97.60;100424.91;5028743;28;20052;-88
2023/05/23 05:47:01;;;;;;;14.80;12.85;;;;;;;17.03;96.01;100419.13;5028520;28;20046;-87
2023/05/23 05:49:31;;;;;;;14.70;11.98;;;;;;;17.05;94.88;100427.91;5007026;28;20061;-85
2023/05/23 05:52:07;;;;;;;15.77;12.82;;;;;;;16.90;97.81;100412.97;5009093;28;20050;-87
2023/05/23 05:54:37;;;;;;;13.75;12.32;;;;;;;17.02;96.58;100438.81;5010669;28;20360;-86
2023/05/23 05:57:29;;;;;;;15.10;13.50;;;;;;;16.91;99.50;100432.56;5012860;28;20129;-88
2023/05/23 06:00:17;;;;;;;13.18;11.77;;;;;;;17.01;97.80;100445.13;5006213;28;20045;-87
2023/05/23 06:02:56;;;;;;;12.77;10.90;;;;;;;16.99;96.49;100441.75;5018632;28;20057;-88
2023/05/23 06:05:31;;;;;;;12.70;11.20;;;;;;;17.01;96.75;100466.53;5042272;28;20132;-86
2023/05/23 06:08:07;;;;;;;13.25;11.25;;;;;;;16.97;95.82;100446.34;5027014;28;20053;-85
2023/05/23 06:10:48;;;;;;;13.63;11.23;;;;;;;16.97;96.65;100467.75;5028715;28;20067;-86
2023/05/23 06:13:16;;;;;;;12.35;10.98;;;;;;;16.95;97.15;100464.31;5043465;28;20050;-88
2023/05/23 06:15:43;;;;;;;13.45;11.13;;;;;;;16.98;97.64;100463.25;5011383;28;20045;-87
2023/05/23 06:18:13;;;;;;;11.32;9.45;;;;;;;16.99;96.25;100462.28;5029663;28;20450;-87
2023/05/23 06:20:43;;;;;;;;;;;;;;;17.01;98.81;100471.03;5028037;28;20111;-87
2023/05/23 06:23:10;;;;;;;11.80;10.60;;;;;;;16.92;98.27;100455.66;5029000;28;19920;-87
2023/05/23 06:25:38;;;;;;;12.20;10.23;;;;;;;16.82;99.18;100450.13;5035374;28;20049;-86
2023/05/23 06:28:06;;;;;;;11.57;10.02;;;;;;;16.97;98.44;100470.44;5012909;28;20056;-86
2023/05/23 06:30:34;;;;;;;10.75;9.73;;;;;;;17.01;99.60;100463.88;4997972;28;20051;-86
2023/05/23 06:33:03;;;;;;;13.40;9.67;;;;;;;17.10;99.28;100467.72;5015828;28;20056;-86
2023/05/23 06:35:38;;;;;;;10.70;9.60;;;;;;;16.92;98.73;100434.25;5017652;28;20069;-84
2023/05/23 06:38:07;;;;;;;10.57;9.48;;;;;;;17.04;99.04;100458.28;5001221;28;20101;-85
2023/05/23 06:40:35;;;;;;;10.65;9.55;;;;;;;17.18;98.90;100465.31;5028125;28;20053;-84
2023/05/23 06:46:46;;;;;;;8.88;7.97;;;;;;;17.05;97.07;100432.41;5053230;28;20060;-87
2023/05/23 06:49:14;;;;;;;10.13;8.15;;;;;;;17.23;96.57;100464.97;5054984;28;20052;-87
2023/05/23 06:51:41;;;;;;;10.75;8.40;;;;;;;17.30;96.89;100467.13;5035117;28;20045;-88
2023/05/23 06:54:09;;;;;;;10.15;9.07;;;;;;;17.25;96.16;100449.69;5031317;28;20055;-86
2023/05/23 06:56:40;;;;;;;7.97;7.18;;;;;;;17.45;95.50;100459.78;5010479;28;20132;-86
2023/05/23 06:59:12;;;;;;;7.75;6.95;;;;;;;17.48;95.69;100446.13;5032856;28;20045;-85
2023/05/23 07:01:56;;;;;;;8.10;7.00;;;;;;;18.32;93.77;100453.97;5051571;28;20046;-86
2023/05/23 07:04:23;;;;;;;6.65;5.80;;;;;;;19.00;88.67;100434.25;5052846;28;20049;-85
2023/05/23 07:06:54;;;;;;;7.43;5.78;;;;;;;19.68;81.98;100435.75;5038118;28;20109;-85
2023/05/23 07:09:21;;;;;;;6.20;4.72;;;;;;;19.88;77.89;100442.13;5038159;28;20052;-87
2023/05/23 07:12:05;;;;;;;5.75;5.10;;;;;;;20.04;76.46;100420.19;5031421;28;20053;-86
2023/05/23 07:14:34;;;;;;;4.70;4.30;;;;;;;20.14;75.27;100442.63;5012159;28;20095;-86
2023/05/23 07:17:04;;;;;;;4.32;3.92;;;;;;;20.31;72.31;100444.69;5028916;28;20501;-86
2023/05/23 07:19:45;;;;;;;5.38;3.67;;;;;;;20.51;71.42;100429.53;5017199;28;20045;-86
2023/05/23 07:26:08;;;;;;;4.30;3.90;;;;;;;20.70;66.32;100440.38;5045831;28;20044;-87
2023/05/23 07:28:49;;;;;;;4.80;4.30;;;;;;;20.91;68.94;100459.16;5027723;28;20049;-87
2023/05/23 07:31:16;;;;;;;5.22;4.72;;;;;;;21.01;65.13;100462.72;5021005;28;20045;-87
2023/05/23 07:33:43;;;;;;;5.82;5.00;;;;;;;20.74;67.33;100467.88;5027207;28;20064;-88
2023/05/23 07:36:12;;;;;;;5.10;4.55;;;;;;;20.88;66.95;100459.44;5026710;28;20147;-87
2023/05/23 07:38:46;;;;;;;5.70;4.72;;;;;;;20.78;67.97;100445.09;5043108;28;20093;-87
2023/05/23 07:41:13;;;;;;;5.88;4.63;;;;;;;21.14;67.64;100462.47;5039137;28;20049;-87
2023/05/23 07:47:32;;;;;;;7.15;6.38;;;;;;;20.43;71.86;100470.56;5043445;28;20523;-86
2023/05/23 10:13:10;;;;;;;3.53;3.22;;;;;;;19.67;74.52;100535.31;5167937;22;20075;-87
2023/05/23 10:16:25;;;;;;;4.00;3.10;;;;;;;19.37;73.93;100518.00;5065315;28;20109;-87
2023/05/23 10:19:01;;;;;;;3.38;3.00;;;;;;;19.33;76.46;100529.13;5062885;28;20175;-88
2023/05/23 10:21:35;;;;;;;3.63;3.28;;;;;;;19.35;77.15;100533.41;5047100;28;20385;-88
2023/05/23 10:24:06;;;;;;;4.28;3.45;;;;;;;19.47;77.02;100528.84;5049650;28;20033;-87
2023/05/23 10:26:35;;;;;;;4.47;3.40;;;;;;;19.32;76.72;100484.47;5048199;28;20128;-88
2023/05/23 10:29:12;;;;;;;3.50;3.03;;;;;;;19.92;74.93;100540.34;5050413;28;20055;-87
2023/05/23 10:32:03;;;;;;;4.30;3.30;;;;;;;20.45;75.11;100527.78;4993451;28;20042;-87
2023/05/23 10:38:40;;;;;;;3.83;3.40;;;;;;;20.95;69.33;100541.34;5010660;28;20037;-88
2023/05/23 10:41:29;;;;;;;4.05;3.55;;;;;;;20.82;71.49;100536.19;4995624;28;20077;-86
2023/05/23 10:44:11;;;;;;;4.97;3.70;;;;;;;20.63;71.21;100530.69;4993104;28;20089;-89
2023/05/23 10:50:38;;;;;;;;;;;;;;;19.92;74.43;100541.19;5010918;28;20061;-86
2023/05/23 10:56:47;;;;;;;4.80;3.88;;;;;;;20.05;74.83;100548.22;4993128;28;20058;-87
2023/05/23 10:59:31;;;;;;;6.30;3.67;;;;;;;19.99;75.43;100554.13;4994499;28;20054;-87
2023/05/23 11:02:18;;;;;;;4.10;3.70;;;;;;;19.60;76.09;100530.44;4995278;28;20118;-88
2023/05/23 11:04:47;;;;;;;3.95;3.58;;;;;;;19.61;77.00;100550.09;4991291;28;20110;-87
2023/05/23 11:07:31;;;;;;;6.63;4.28;;;;;;;19.55;78.63;100558.63;4931712;29;20102;-88
2023/05/23 11:10:12;;;;;;;4.05;3.70;;;;;;;19.37;79.67;100541.31;4929065;29;20044;-88
2023/05/23 11:12:43;;;;;;;5.88;3.50;;;;;;;19.51;78.56;100541.94;4930015;29;20063;-88
2023/05/23 11:15:17;;;;;;;4.90;3.17;;;;;;;19.60;78.70;100540.31;4914664;29;20048;-87
2023/05/23 11:17:56;;;;;;;4.30;3.70;;;;;;;19.63;77.85;100545.44;4914594;29;20126;-88
2023/05/23 11:20:26;;;;;;;3.50;2.80;;;;;;;19.74;76.84;100542.72;4914285;29;20055;-89
2023/05/23 11:23:18;;;;;;;3.80;3.10;;;;;;;19.97;76.91;100559.63;4922463;29;20059;-91
2023/05/23 11:29:20;;;;;;;5.22;3.28;;;;;;;20.45;72.51;100569.97;4948882;29;20047;-88
2023/05/23 11:32:12;;;;;;;5.18;3.35;;;;;;;20.41;72.12;100563.97;4948986;29;20573;-87
2023/05/23 11:35:10;;;;;;;4.55;3.50;;;;;;;20.23;73.72;100554.75;4972908;28;20137;-87
2023/05/23 11:37:54;;;;;;;3.42;2.78;;;;;;;20.31;75.49;100560.31;5010063;28;20047;-86
2023/05/23 11:40:46;;;;;;;5.18;3.30;;;;;;;20.22;72.69;100544.97;4992566;28;20050;-87
2023/05/23 11:43:29;;;;;;;5.30;3.78;;;;;;;20.20;74.05;100545.09;4997541;28;20069;-86
2023/05/23 11:49:44;;;;;;;2.75;2.40;;;;;;;20.74;68.69;100545.91;5005894;28;20042;-87
2023/05/23 11:56:08;;;;;;;2.22;2.00;;;;;;;21.30;62.95;100568.72;5008099;28;20145;-87
2023/05/23 11:58:41;;;;;;;2.50;2.05;;;;;;;21.16;62.71;100555.59;5042097;28;20132;-88
2023/05/23 12:01:11;;;;;;;1.60;1.50;;;;;;;20.99;63.97;100564.31;5048358;28;20045;-89
2023/05/23 12:07:25;;;;;;;3.20;2.35;;;;;;;21.02;65.98;100569.44;5009409;28;19916;-86
2023/05/23 12:10:05;;;;;;;2.28;1.60;;;;;;;21.01;63.38;100565.03;5010813;28;20064;-87
2023/05/23 12:12:50;;;;;;;2.47;1.83;;;;;;;21.06;65.10;100564.63;4989973;28;20046;-87
2023/05/23 12:15:44;;;;;;;1.90;1.30;;;;;;;21.12;64.01;100558.69;5006623;28;20074;-88
2023/05/23 12:22:09;;;;;;;1.50;1.33;;;;;;;21.31;64.51;100556.09;5021941;28;20068;-87
2023/05/23 12:24:46;;;;;;;1.63;1.48;;;;;;;21.27;60.91;100565.44;5006957;28;20042;-87
2023/05/23 12:27:34;;;;;;;1.80;1.27;;;;;;;21.26;60.98;100569.97;5023164;28;20049;-87
2023/05/23 12:30:13;;;;;;;2.88;1.30;;;;;;;21.17;60.96;100570.78;5044892;28;20180;-88
2023/05/23 12:36:33;;;;;;;2.08;1.40;;;;;;;20.57;63.73;100567.06;5052448;28;20045;-87
2023/05/23 12:39:26;;;;;;;1.38;1.13;;;;;;;20.62;65.67;100563.97;5049385;28;20438;-87
2023/05/23 12:42:15;;;;;;;2.75;1.27;;;;;;;20.73;65.96;100550.44;5016740;28;20526;-87
2023/05/23 12:45:00;;;;;;;2.28;1.52;;;;;;;20.85;63.27;100570.06;5009132;28;20061;-88
2023/05/23 12:47:31;;;;;;;2.67;1.77;;;;;;;20.70;65.14;100576.75;5033234;28;20076;-87
2023/05/23 12:50:12;;;;;;;3.38;1.70;;;;;;;20.54;66.35;100578.09;5049598;28;20060;-88
2023/05/23 12:56:40;;;;;;;2.35;1.65;;;;;;;20.49;70.23;100579.44;5077802;28;20052;-86
2023/05/23 13:03:15;;;;;;;1.90;1.80;;;;;;;20.60;66.64;100590.16;5073498;28;20520;-85
2023/05/23 13:05:45;;;;;;;2.53;1.92;;;;;;;20.40;67.50;100580.25;5059271;28;20040;-87
2023/05/23 13:12:06;;;;;;;1.98;1.77;;;;;;;20.58;67.34;100578.69;5071913;28;20143;-87
2023/05/23 13:18:41;;;;;;;3.25;2.00;;;;;;;20.00;68.40;100593.44;5073004;28;20112;-87
2023/05/23 13:21:49;;;;;;;3.97;2.20;;;;;;;19.79;69.84;100596.09;5071802;28;20084;-87
2023/05/23 13:24:26;;;;;;;3.28;2.40;;;;;;;19.65;69.53;100573.03;5057531;28;20526;-88
2023/05/23 13:27:10;;;;;;;3.88;2.42;;;;;;;19.60;69.41;100564.50;5052326;28;20037;-88
2023/05/23 13:30:00;;;;;;;3.97;2.60;;;;;;;19.88;68.27;100592.63;5068772;28;20126;-89
2023/05/23 13:36:34;;;;;;;3.92;2.90;;;;;;;20.09;68.09;100593.56;5067728;28;20052;-87
2023/05/23 13:39:09;;;;;;;4.35;2.85;;;;;;;20.08;66.23;100594.53;5018452;28;20060;-88
2023/05/23 13:41:45;;;;;;;3.70;3.00;;;;;;;19.98;66.74;100590.06;5049741;28;20072;-87
2023/05/23 13:44:16;;;;;;;6.53;2.78;;;;;;;20.10;67.99;100597.94;5048934;28;20473;-88
2023/05/23 13:46:45;;;;;;;10.32;3.70;;;;;;;19.83;67.44;100584.94;5065745;28;20036;-88
2023/05/23 13:49:16;;;;;;;;;;;;;;;19.74;66.59;100596.47;5049339;28;20052;-89
2023/05/23 13:51:48;;;;;;;4.25;3.63;;;;;;;19.69;68.05;100597.81;5068893;28;19989;-87
2023/05/23 13:54:20;;;;;;;5.25;3.78;;;;;;;19.65;65.79;100604.44;5051601;28;20060;-88
2023/05/23 13:56:57;;;;;;;5.45;3.63;;;;;;;19.64;65.74;100598.19;5037727;28;20128;-88
2023/05/23 13:59:47;;;;;;;5.55;3.47;;;;;;;19.82;64.82;100596.69;5004454;28;20061;-88
2023/05/23 14:02:14;;;;;;;5.53;3.60;;;;;;;20.05;65.56;100597.47;5003363;28;20110;-87
2023/05/23 14:04:43;;;;;;;3.97;3.53;;;;;;;20.20;60.27;100589.97;4988190;28;20042;-87
2023/05/23 14:07:14;;;;;;;6.22;4.18;;;;;;;20.21;60.67;100599.72;5004351;28;20048;-88
2023/05/23 14:09:49;;;;;;;4.95;3.85;;;;;;;20.09;60.35;100590.00;4995992;28;20057;-87
2023/05/23 14:24:10;;;;;;;6.32;4.95;;;;;;;20.09;61.85;100607.00;6210633;22;20073;-87
2023/05/23 14:26:39;;;;;;;5.53;4.80;;;;;;;20.15;61.78;100593.03;4992342;28;20057;-87
2023/05/23 14:29:10;;;;;;;5.32;4.53;;;;;;;20.30;60.97;100593.59;4991469;28;20059;-88
2023/05/23 14:31:50;;;;;;;9.82;5.10;;;;;;;20.38;61.40;100603.72;4992931;28;20047;-88
2023/05/23 14:34:33;;;;;;;7.93;5.13;;;;;;;20.25;60.80;100598.50;4973192;28;20074;-87
2023/05/23 14:37:08;;;;;;;6.28;4.85;;;;;;;20.25;61.54;100603.88;4970629;28;20043;-88
2023/05/23 14:39:38;;;;;;;7.57;5.00;;;;;;;20.27;61.26;100604.59;4989147;28;20054;-89
2023/05/23 14:42:12;;;;;;;6.93;5.32;;;;;;;20.18;61.92;100614.28;4972629;28;20051;-89
2023/05/23 14:44:53;;;;;;;8.30;5.72;;;;;;;19.98;63.98;100609.72;4961097;28;20055;-88
2023/05/23 14:47:28;;;;;;;5.80;5.10;;;;;;;19.85;64.64;100617.06;4973964;28;20045;-89
2023/05/23 14:50:03;;;;;;;6.72;5.00;;;;;;;19.66;65.73;100603.47;4989747;28;20047;-88
2023/05/23 14:52:44;;;;;;;5.60;4.63;;;;;;;19.68;65.72;100614.91;4990553;28;20046;-89
2023/05/23 14:55:24;;;;;;;9.65;4.72;;;;;;;19.67;60.92;100603.34;4990762;28;20056;-88
2023/05/23 14:57:55;;;;;;;5.07;4.07;;;;;;;19.52;58.98;100567.78;4974086;28;20046;-88
2023/05/23 15:00:29;;;;;;;7.15;4.78;;;;;;;19.89;59.25;100618.53;4986773;28;20168;-88
2023/05/23 15:03:16;;;;;;;4.90;4.40;;;;;;;19.91;61.95;100625.50;4989912;28;20049;-88
2023/05/23 15:05:49;;;;;;;7.43;4.80;;;;;;;20.12;62.33;100622.03;4983608;28;20051;-87
2023/05/23 15:08:23;;;;;;;6.30;5.50;;;;;;;20.21;61.03;100616.72;4980143;28;20137;-88
2023/05/23 15:10:57;;;;;;;7.53;5.30;;;;;;;20.51;60.85;100640.22;4992732;28;20057;-88
2023/05/23 15:13:28;;;;;;;7.07;5.07;;;;;;;20.61;60.21;100624.16;4990125;28;20135;-88
2023/05/23 15:15:55;;;;;;;7.72;5.13;;;;;;;20.70;59.02;100627.88;4970259;28;20078;-88
2023/05/23 15:18:24;;;;;;;8.43;5.00;;;;;;;20.52;57.88;100620.41;4984449;28;20050;-88
2023/05/23 15:21:09;;;;;;;5.30;4.55;;;;;;;20.51;58.99;100621.38;4988724;28;20051;-86
2023/05/23 15:23:45;;;;;;;5.80;4.63;;;;;;;20.39;57.67;100586.59;4986920;28;20051;-85
2023/05/23 15:26:15;;;;;;;5.80;4.63;;;;;;;20.79;56.72;100619.88;4985258;28;20054;-89
2023/05/23 15:28:47;;;;;;;5.63;4.07;;;;;;;20.66;56.01;100622.78;5011494;28;20042;-86
2023/05/23 15:31:14;;;;;;;5.40;4.40;;;;;;;20.47;57.58;100614.53;5013971;28;20078;-87
2023/05/23 15:33:55;;;;;;;6.90;4.78;;;;;;;20.50;57.59;100638.50;5015810;28;20066;-88
2023/05/23 15:36:31;;;;;;;9.02;4.78;;;;;;;20.41;57.80;100590.88;5013704;28;20050;-87
2023/05/23 15:39:00;;;;;;;6.03;4.53;;;;;;;20.58;58.32;100627.09;5016058;28;20109;-85